createdAt,value
2022-09-28T00:02:03.787Z,39.97
2022-09-28T00:05:09.644Z,35.20
2022-09-28T00:08:15.248Z,33.90
2022-09-28T00:11:23.860Z,31.73
2022-09-28T00:14:29.389Z,31.87
2022-09-28T00:17:35.167Z,37.88
2022-09-28T00:20:40.399Z,40.40
2022-09-28T00:23:48.121Z,35.48
2022-09-28T00:26:59.624Z,39.23
2022-09-28T00:30:05.319Z,32.35
2022-09-28T00:33:11.438Z,38.23
2022-09-28T00:36:17.200Z,31.23
2022-09-28T00:39:22.669Z,36.48
2022-09-28T00:42:33.305Z,38.20
2022-09-28T00:45:40.163Z,34.05
2022-09-28T00:48:48.885Z,36.68
2022-09-28T00:51:54.882Z,33.20
2022-09-28T00:55:01.007Z,33.58
2022-09-28T00:58:03.114Z,37.30
2022-09-28T01:00:57.179Z,43.50
2022-09-28T01:04:03.109Z,39.03
2022-09-28T01:07:10.791Z,37.23
2022-09-28T01:10:18.214Z,39.63
2022-09-28T01:13:25.281Z,42.58
2022-09-28T01:17:00.091Z,42.17
2022-09-28T01:20:40.344Z,52.78
2022-09-28T01:24:09.712Z,43.42
2022-09-28T01:27:43.802Z,40.25
2022-09-28T01:30:56.142Z,42.70
2022-09-28T01:34:15.676Z,40.00
2022-09-28T01:37:18.730Z,44.38
2022-09-28T01:40:10.893Z,42.98
2022-09-28T01:43:37.341Z,42.95
2022-09-28T01:46:54.165Z,48.08
2022-09-28T01:50:09.039Z,45.43
2022-09-28T01:53:37.740Z,45.78
2022-09-28T01:57:09.657Z,47.20
2022-09-28T02:00:22.436Z,45.95
2022-09-28T02:03:34.436Z,47.15
2022-09-28T02:06:47.652Z,52.75
2022-09-28T02:10:05.323Z,55.95
2022-09-28T02:13:28.058Z,48.02
2022-09-28T02:16:52.977Z,50.50
2022-09-28T02:20:01.717Z,51.63
2022-09-28T02:23:10.265Z,55.92
2022-09-28T02:26:18.454Z,51.60
2022-09-28T02:29:23.934Z,50.20
2022-09-28T02:32:30.002Z,56.30
2022-09-28T02:35:36.336Z,56.00
2022-09-28T02:38:41.764Z,55.38
2022-09-28T02:42:12.960Z,54.03
2022-09-28T02:45:51.900Z,52.70
2022-09-28T02:49:22.505Z,50.35
2022-09-28T02:53:01.396Z,51.60
2022-09-28T02:56:26.827Z,57.33
2022-09-28T02:59:57.969Z,57.03
2022-09-28T03:03:20.943Z,53.10
2022-09-28T03:06:30.182Z,53.80
2022-09-28T03:09:59.062Z,46.40
2022-09-28T03:13:04.946Z,47.90
2022-09-28T03:16:25.929Z,55.10
2022-09-28T03:22:37.153Z,52.65
2022-09-28T03:25:42.571Z,50.92
2022-09-28T03:28:47.973Z,56.85
2022-09-28T03:31:55.914Z,55.03
2022-09-28T03:35:02.867Z,55.88
2022-09-28T03:38:12.943Z,50.60
2022-09-28T03:41:20.950Z,56.15
2022-09-28T03:44:27.750Z,59.13
2022-09-28T03:47:28.364Z,60.40
2022-09-28T03:50:18.223Z,57.13
2022-09-28T03:53:12.003Z,54.05
2022-09-28T03:55:58.516Z,60.48
2022-09-28T03:58:51.558Z,58.42
2022-09-28T04:01:45.135Z,60.50
2022-09-28T04:04:49.971Z,59.30
2022-09-28T04:07:55.899Z,56.70
2022-09-28T04:11:02.827Z,50.50
2022-09-28T04:14:07.824Z,53.08
2022-09-28T04:17:14.295Z,54.58
2022-09-28T04:20:14.383Z,62.55
2022-09-28T04:23:33.852Z,72.45
2022-09-28T04:26:41.058Z,68.92
2022-09-28T04:29:48.245Z,70.90
2022-09-28T04:32:54.922Z,67.90
2022-09-28T04:36:00.795Z,72.30
2022-09-28T04:39:07.623Z,68.80
2022-09-28T04:42:08.523Z,62.35
2022-09-28T04:45:15.410Z,71.20
2022-09-28T04:48:21.988Z,66.72
2022-09-28T04:51:30.992Z,72.97
2022-09-28T04:54:36.885Z,71.70
2022-09-28T04:57:42.991Z,64.72
2022-09-28T05:00:49.612Z,64.32
2022-09-28T05:04:04.483Z,68.87
2022-09-28T05:07:28.100Z,53.55
2022-09-28T05:10:37.064Z,58.63
2022-09-28T05:13:46.850Z,68.25
2022-09-28T05:16:54.036Z,57.48
2022-09-28T05:20:00.963Z,60.45
2022-09-28T05:23:06.731Z,52.78
2022-09-28T05:26:14.975Z,53.05
2022-09-28T05:29:19.791Z,47.05
2022-09-28T05:32:43.004Z,58.23
2022-09-28T05:35:51.036Z,51.90
2022-09-28T05:38:56.314Z,55.95
2022-09-28T05:42:05.152Z,55.17
2022-09-28T05:45:14.820Z,50.45
2022-09-28T05:48:26.696Z,47.33
2022-09-28T05:51:34.213Z,50.05
2022-09-28T05:54:41.702Z,43.20
2022-09-28T05:57:47.632Z,43.80
2022-09-28T06:00:53.507Z,47.33
2022-09-28T06:03:59.795Z,47.38
2022-09-28T06:07:08.143Z,42.85
2022-09-28T06:10:14.799Z,38.90
2022-09-28T06:13:21.620Z,42.67
2022-09-28T06:16:31.448Z,40.58
2022-09-28T06:19:38.310Z,36.60
2022-09-28T06:23:03.176Z,36.53
2022-09-28T06:26:09.283Z,33.65
2022-09-28T06:29:19.455Z,32.73
2022-09-28T06:32:24.803Z,26.85
2022-09-28T06:35:32.467Z,32.25
2022-09-28T06:38:38.301Z,24.85
2022-09-28T06:41:44.581Z,26.90
2022-09-28T06:44:53.356Z,29.57
2022-09-28T06:48:05.566Z,20.80
2022-09-28T06:51:13.489Z,29.70
2022-09-28T06:54:20.654Z,22.90
2022-09-28T06:57:32.530Z,26.65
2022-09-28T07:00:39.226Z,21.25
2022-09-28T07:03:47.261Z,23.20
2022-09-28T07:07:02.834Z,24.87
2022-09-28T07:10:24.387Z,26.95
2022-09-28T07:13:54.194Z,27.55
2022-09-28T07:17:08.081Z,25.17
2022-09-28T07:19:57.579Z,27.70
2022-09-28T07:23:18.850Z,23.77
2022-09-28T07:26:36.196Z,26.12
2022-09-28T07:29:44.553Z,28.52
2022-09-28T07:32:39.167Z,28.67
2022-09-28T07:35:42.592Z,32.15
2022-09-28T07:38:47.736Z,28.62
2022-09-28T07:41:56.739Z,28.80
2022-09-28T07:45:04.032Z,29.98
2022-09-28T07:48:12.956Z,31.85
2022-09-28T07:51:19.033Z,33.83
2022-09-28T07:54:06.762Z,36.53
2022-09-28T07:57:04.010Z,37.40
2022-09-28T08:00:15.571Z,37.85
2022-09-28T08:03:20.490Z,39.18
2022-09-28T08:06:25.230Z,43.55
2022-09-28T08:09:30.617Z,50.03
2022-09-28T08:12:54.450Z,46.37
2022-09-28T08:16:11.984Z,43.70
2022-09-28T08:19:18.248Z,48.80
2022-09-28T08:22:24.390Z,42.48
2022-09-28T08:25:31.583Z,37.55
2022-09-28T08:28:38.163Z,46.50
2022-09-28T08:31:45.214Z,44.42
2022-09-28T08:34:57.217Z,51.23
2022-09-28T08:38:10.431Z,49.67
2022-09-28T08:41:57.198Z,46.08
2022-09-28T08:45:07.596Z,43.55
2022-09-28T08:49:12.988Z,42.88
2022-09-28T08:52:21.886Z,48.73
2022-09-28T08:55:53.150Z,40.15
2022-09-28T08:58:59.396Z,40.77
2022-09-28T09:02:12.398Z,40.23
2022-09-28T09:05:23.519Z,43.65
2022-09-28T09:09:12.273Z,42.03
2022-09-28T09:12:27.017Z,39.78
2022-09-28T09:16:06.151Z,39.78
2022-09-28T09:19:50.047Z,42.53
2022-09-28T09:23:13.710Z,40.08
2022-09-28T09:26:30.035Z,37.98
2022-09-28T09:30:03.112Z,37.78
2022-09-28T09:33:46.448Z,41.95
2022-09-28T09:37:35.044Z,40.17
2022-09-28T09:41:07.328Z,38.65
2022-09-28T09:44:55.712Z,37.70
2022-09-28T09:48:33.424Z,37.83
2022-09-28T09:51:57.319Z,32.08
2022-09-28T09:55:23.352Z,28.10
2022-09-28T09:58:57.505Z,32.85
2022-09-28T10:02:07.744Z,34.43
2022-09-28T10:05:36.123Z,31.15
2022-09-28T10:08:46.586Z,35.05
2022-09-28T10:12:01.320Z,33.80
2022-09-28T10:15:09.500Z,29.85
2022-09-28T10:18:19.432Z,31.33
2022-09-28T10:21:45.308Z,31.07
2022-09-28T10:25:03.152Z,28.20
2022-09-28T10:28:13.786Z,33.95
2022-09-28T10:31:51.456Z,32.20
2022-09-28T10:38:18.085Z,33.98
2022-09-28T10:41:27.487Z,38.63
2022-09-28T10:44:36.510Z,37.48
2022-09-28T10:47:45.586Z,32.03
2022-09-28T10:50:51.881Z,29.70
2022-09-28T10:54:15.704Z,37.40
2022-09-28T10:57:27.528Z,35.55
2022-09-28T11:00:56.032Z,36.30
2022-09-28T11:04:19.863Z,33.10
2022-09-28T11:07:39.234Z,38.35
2022-09-28T11:10:45.796Z,33.65
2022-09-28T11:14:16.603Z,34.58
2022-09-28T11:17:45.408Z,32.98
2022-09-28T11:20:51.617Z,31.97
2022-09-28T11:23:57.006Z,35.78
2022-09-28T11:27:09.586Z,28.65
2022-09-28T11:30:15.751Z,31.40
2022-09-28T11:33:42.598Z,37.33
2022-09-28T11:37:10.218Z,28.85
2022-09-28T11:40:53.077Z,36.42
2022-09-28T11:44:52.354Z,35.88
2022-09-28T11:48:14.916Z,35.48
2022-09-28T11:51:34.889Z,32.53
2022-09-28T11:54:53.946Z,31.70
2022-09-28T11:58:05.434Z,40.53
2022-09-28T12:01:53.054Z,29.90
2022-09-28T12:05:34.699Z,33.08
2022-09-28T12:08:53.341Z,32.67
2022-09-28T12:12:21.094Z,36.33
2022-09-28T12:15:59.223Z,30.27
2022-09-28T12:19:03.131Z,27.13
2022-09-28T12:22:16.157Z,33.30
2022-09-28T12:25:29.500Z,33.30
2022-09-28T12:28:48.742Z,30.85
2022-09-28T12:32:15.851Z,35.30
2022-09-28T12:35:32.325Z,32.25
2022-09-28T12:39:18.903Z,30.85
2022-09-28T12:42:25.719Z,29.80
2022-09-28T12:46:06.780Z,31.82
2022-09-28T12:49:40.983Z,35.73
2022-09-28T12:52:13.069Z,31.95
2022-09-28T12:55:36.411Z,31.07
2022-09-28T12:59:03.403Z,29.30
2022-09-28T13:02:33.136Z,31.80
2022-09-28T13:05:57.405Z,30.32
2022-09-28T13:09:22.470Z,39.83
2022-09-28T13:13:01.371Z,32.75
2022-09-28T13:16:30.890Z,31.85
2022-09-28T13:19:55.094Z,37.33
2022-09-28T13:23:30.790Z,31.05
2022-09-28T13:26:51.326Z,32.15
2022-09-28T13:30:00.637Z,30.65
2022-09-28T13:33:10.148Z,33.40
2022-09-28T13:36:15.805Z,43.48
2022-09-28T13:39:44.009Z,35.65
2022-09-28T13:43:04.072Z,32.48
2022-09-28T13:46:10.266Z,43.48
2022-09-28T13:49:39.306Z,35.90
2022-09-28T13:53:08.256Z,37.45
2022-09-28T13:56:39.933Z,42.80
2022-09-28T13:59:45.683Z,36.42
2022-09-28T14:03:05.980Z,32.45
2022-09-28T14:06:42.809Z,31.10
2022-09-28T14:10:02.365Z,31.42
2022-09-28T14:16:38.373Z,34.55
2022-09-28T14:19:47.475Z,31.77
2022-09-28T14:23:25.327Z,31.75
2022-09-28T14:26:48.545Z,33.33
2022-09-28T14:29:53.486Z,33.50
2022-09-28T14:33:11.767Z,23.95
2022-09-28T14:36:21.645Z,22.20
2022-09-28T14:40:00.309Z,32.45
2022-09-28T14:43:55.792Z,35.80
2022-09-28T14:47:01.639Z,40.65
2022-09-28T14:50:15.883Z,44.85
2022-09-28T14:53:28.817Z,52.65
2022-09-28T14:56:34.531Z,44.10
2022-09-28T14:59:44.257Z,43.63
2022-09-28T15:02:50.678Z,36.05
2022-09-28T15:06:02.454Z,37.35
2022-09-28T15:09:08.695Z,41.53
2022-09-28T15:12:35.304Z,42.80
2022-09-28T15:15:56.922Z,40.92
2022-09-28T15:19:16.619Z,37.35
2022-09-28T15:22:31.494Z,40.47
2022-09-28T15:25:40.941Z,50.25
2022-09-28T15:28:50.494Z,39.38
2022-09-28T15:31:56.435Z,41.68
2022-09-28T15:35:03.448Z,39.30
2022-09-28T15:38:10.549Z,40.40
2022-09-28T15:41:20.802Z,47.25
2022-09-28T15:44:30.532Z,44.23
2022-09-28T15:47:34.310Z,42.78
2022-09-28T15:50:40.589Z,45.40
2022-09-28T15:53:34.175Z,47.88
2022-09-28T15:56:40.564Z,50.13
2022-09-28T15:59:47.410Z,51.80
2022-09-28T16:02:52.976Z,54.45
2022-09-28T16:06:02.564Z,55.40
2022-09-28T16:12:13.439Z,50.55
2022-09-28T16:15:42.444Z,49.65
2022-09-28T16:18:50.776Z,57.27
2022-09-28T16:22:03.013Z,48.52
2022-09-28T16:25:12.198Z,60.08
2022-09-28T16:28:17.231Z,59.88
2022-09-28T16:31:43.730Z,50.48
2022-09-28T16:34:48.680Z,54.50
2022-09-28T16:37:55.840Z,41.25
2022-09-28T16:41:07.261Z,36.23
2022-09-28T16:44:13.828Z,40.00
2022-09-28T16:47:21.471Z,39.58
2022-09-28T16:50:31.508Z,41.33
2022-09-28T16:53:56.016Z,35.75
2022-09-28T16:57:02.320Z,34.50
2022-09-28T17:00:08.180Z,34.50
2022-09-28T17:03:13.847Z,35.17
2022-09-28T17:06:19.846Z,45.95
2022-09-28T17:09:29.059Z,36.95
2022-09-28T17:12:36.728Z,40.33
2022-09-28T17:15:42.173Z,36.73
2022-09-28T17:18:47.424Z,41.30
2022-09-28T17:21:53.389Z,39.50
2022-09-28T17:24:59.223Z,35.28
2022-09-28T17:28:05.014Z,35.68
2022-09-28T17:31:09.964Z,35.00
2022-09-28T17:34:17.332Z,38.33
2022-09-28T17:37:27.788Z,43.63
2022-09-28T17:40:38.456Z,42.83
2022-09-28T17:43:44.263Z,36.43
2022-09-28T17:46:53.385Z,40.00
2022-09-28T17:50:00.556Z,44.15
2022-09-28T17:53:09.328Z,44.45
2022-09-28T17:56:13.991Z,43.40
2022-09-28T17:59:22.458Z,58.02
2022-09-28T18:02:27.594Z,52.48
2022-09-28T18:05:34.406Z,56.70
2022-09-28T18:08:40.022Z,53.92
2022-09-28T18:11:48.235Z,58.58
2022-09-28T18:14:54.870Z,56.60
2022-09-28T18:18:01.539Z,60.30
2022-09-28T18:21:07.822Z,60.03
2022-09-28T18:24:15.357Z,74.53
2022-09-28T18:27:21.035Z,61.48
2022-09-28T18:30:26.960Z,70.72
2022-09-28T18:33:51.033Z,55.92
2022-09-28T18:36:56.021Z,58.85
2022-09-28T18:40:02.084Z,67.50
2022-09-28T18:43:07.025Z,66.95
2022-09-28T18:46:12.673Z,54.08
2022-09-28T18:49:20.170Z,66.90
2022-09-28T18:52:26.545Z,65.12
2022-09-28T18:55:32.197Z,62.25
2022-09-28T18:58:37.017Z,59.90
2022-09-28T19:01:43.451Z,58.75
2022-09-28T19:04:52.620Z,54.88
2022-09-28T19:07:57.705Z,64.07
2022-09-28T19:11:04.423Z,66.53
2022-09-28T19:14:10.297Z,65.70
2022-09-28T19:17:17.003Z,60.30
2022-09-28T19:20:24.019Z,63.60
2022-09-28T19:23:29.828Z,62.35
2022-09-28T19:26:39.395Z,63.70
2022-09-28T19:29:45.038Z,63.68
2022-09-28T19:32:50.720Z,61.58
2022-09-28T19:35:56.517Z,63.85
2022-09-28T19:39:02.608Z,66.57
2022-09-28T19:42:08.495Z,67.35
2022-09-28T19:45:15.679Z,63.25
2022-09-28T19:48:21.268Z,68.92
2022-09-28T19:51:27.065Z,61.20
2022-09-28T19:54:37.041Z,70.97
2022-09-28T19:57:44.649Z,64.65
2022-09-28T20:00:49.852Z,58.83
2022-09-28T20:03:56.490Z,61.92
2022-09-28T20:06:56.574Z,57.58
2022-09-28T20:09:42.548Z,65.45
2022-09-28T20:12:35.328Z,53.42
2022-09-28T20:15:23.976Z,64.32
2022-09-28T20:18:17.885Z,56.92
2022-09-28T20:21:26.432Z,50.25
2022-09-28T20:24:30.196Z,47.73
2022-09-28T20:27:35.324Z,48.98
2022-09-28T20:30:41.192Z,50.20
2022-09-28T20:33:50.093Z,48.85
2022-09-28T20:36:55.919Z,50.52
2022-09-28T20:40:02.454Z,43.55
2022-09-28T20:43:07.941Z,43.20
2022-09-28T20:46:13.658Z,43.75
2022-09-28T20:49:19.864Z,40.40
2022-09-28T20:52:25.075Z,38.78
2022-09-28T20:55:30.815Z,34.08
2022-09-28T20:58:36.372Z,39.18
2022-09-28T21:01:42.677Z,37.90
2022-09-28T21:04:48.417Z,41.77
2022-09-28T21:07:54.904Z,35.03
2022-09-28T21:11:00.743Z,37.03
2022-09-28T21:14:16.193Z,29.48
2022-09-28T21:17:22.179Z,31.48
2022-09-28T21:20:28.665Z,35.60
2022-09-28T21:23:34.457Z,33.33
2022-09-28T21:26:43.402Z,30.57
2022-09-28T21:29:49.059Z,37.30
2022-09-28T21:32:56.426Z,30.70
2022-09-28T21:36:03.409Z,27.60
2022-09-28T21:39:10.618Z,24.95
2022-09-28T21:42:17.046Z,25.02
2022-09-28T21:45:24.129Z,27.80
2022-09-28T21:48:29.808Z,29.25
2022-09-28T21:51:34.971Z,30.15
2022-09-28T21:54:42.571Z,28.57
2022-09-28T21:57:47.918Z,24.40
2022-09-28T22:00:58.262Z,27.05
2022-09-28T22:04:00.734Z,21.57
2022-09-28T22:07:06.988Z,20.95
2022-09-28T22:10:12.233Z,27.05
2022-09-28T22:13:17.141Z,22.95
2022-09-28T22:16:24.630Z,28.70
2022-09-28T22:19:30.895Z,27.32
2022-09-28T22:22:37.237Z,25.55
2022-09-28T22:25:43.587Z,25.57
2022-09-28T22:28:48.812Z,25.55
2022-09-28T22:31:55.530Z,27.52
2022-09-28T22:35:02.578Z,27.37
2022-09-28T22:38:08.489Z,24.00
2022-09-28T22:41:14.038Z,24.75
2022-09-28T22:44:19.989Z,25.27
2022-09-28T22:47:26.881Z,25.68
2022-09-28T22:50:33.600Z,24.63
2022-09-28T22:53:40.125Z,28.50
2022-09-28T22:56:46.189Z,26.80
2022-09-28T22:59:51.764Z,28.87
2022-09-28T23:02:58.599Z,33.88
2022-09-28T23:06:10.143Z,25.70
2022-09-28T23:09:15.572Z,25.43
2022-09-28T23:12:21.443Z,24.45
2022-09-28T23:15:27.911Z,24.90
2022-09-28T23:18:32.978Z,25.75
2022-09-28T23:21:41.110Z,24.12
2022-09-28T23:24:47.853Z,25.37
2022-09-28T23:27:54.093Z,28.73
2022-09-28T23:30:53.998Z,25.02
2022-09-28T23:33:59.945Z,36.17
2022-09-28T23:37:08.780Z,27.62
2022-09-28T23:40:14.957Z,28.80
2022-09-28T23:43:20.602Z,26.45
2022-09-28T23:46:26.145Z,29.37
2022-09-28T23:49:31.171Z,24.15
2022-09-28T23:52:36.518Z,34.98
2022-09-28T23:55:41.686Z,29.95
2022-09-28T23:58:47.394Z,32.50
